METAR Data
IDs: Format: Raw Decoded Include TAF

Data at: 1540 UTC 21 Sep 2018

KDRM 211535Z AUTO 23012G23KT 210V270 10SM SCT028 SCT035 OVC060 21/17 A2948 RMK AO2 T02120173
KDRM 211515Z AUTO 23009G24KT 10SM SCT030 BKN041 OVC080 21/18 A2949 RMK AO2 T02130175
KDRM 211455Z AUTO 22011G17KT 10SM SCT045 BKN065 OVC080 21/18 A2949 RMK AO2 T02100180
KDRM 211435Z AUTO 22011G16KT 10SM SCT031 BKN040 OVC065 21/18 A2949 RMK AO2 T02090180
KDRM 211415Z AUTO 22009G19KT 200V270 10SM SCT026 BKN040 OVC050 21/18 A2950 RMK AO2 T02100182
KDRM 211355Z AUTO 22011G17KT 10SM SCT043 OVC049 21/19 A2949 RMK AO2 T02060190
KDRM 211335Z AUTO 21009G14KT 190V250 10SM SCT021 SCT032 OVC043 21/19 A2949 RMK AO2 T02050191
KDRM 211315Z AUTO 21010KT 10SM SCT018 BKN028 OVC041 21/19 A2949 RMK AO2 T02050190
KDRM 211255Z AUTO 20011G16KT 10SM BKN025 BKN031 BKN037 21/19 A2948 RMK AO2 T02100191
KDRM 211235Z AUTO 20011G15KT 10SM SCT026 SCT120 21/19 A2949 RMK AO2 T02060190
KDRM 211215Z AUTO 20014G20KT 10SM CLR 21/19 A2948 RMK AO2 T02050188
KDRM 211155Z AUTO 20013G19KT 10SM CLR 20/19 A2949 RMK AO2 60003 70047 T02010186 10205 20171
KDRM 211135Z AUTO 20011G18KT 10SM CLR 20/18 A2950 RMK AO2 T02000184
KDRM 211115Z AUTO 19011G16KT 10SM CLR 20/18 A2951 RMK AO2 T01990183
KDRM 211055Z AUTO 19012G18KT 10SM CLR 20/18 A2952 RMK AO2 T01990182
KDRM 211035Z AUTO 19010KT 10SM SCT110 20/18 A2954 RMK AO2 T01960183
KDRM 211015Z AUTO 19013G18KT 10SM CLR 20/18 A2956 RMK AO2 T01950182
KDRM 210955Z AUTO 19008G14KT 10SM -RA SCT090 SCT110 20/18 A2957 RMK AO2 P0002 T01950183
KDRM 210935Z AUTO 18008KT 10SM -RA SCT047 BKN100 OVC120 20/19 A2958 RMK AO2 P0002 T01950186
KDRM 210915Z AUTO 19008G17KT 10SM -RA SCT016 BKN065 OVC110 20/19 A2959 RMK AO2 P0001 T01950187
KDRM 210855Z AUTO 21009KT 7SM -RA SCT019 BKN060 OVC085 20/19 A2963 RMK AO2 P0001 60001 T01970186
KDRM 210835Z AUTO 21009G15KT 10SM RA SCT022 BKN038 OVC120 21/19 A2963 RMK AO2 T02050190
KDRM 210815Z AUTO 19011G16KT 140V210 7SM SCT006 SCT034 BKN100 19/19 A2963 RMK AO2 T01930187
KDRM 210755Z AUTO 15009G15KT 5SM BR BKN004 BKN010 19/18 A2959 RMK AO2 T01860183
KDRM 210735Z AUTO 14010G18KT 4SM BR OVC002 18/18 A2960 RMK AO2 T01820180
KDRM 210715Z AUTO 15009G16KT 4SM BR OVC004 18/18 A2963 RMK AO2 T01810177
KDRM 210655Z AUTO 15011G18KT 5SM BR OVC004 18/18 A2965 RMK AO2 T01800176
KDRM 210635Z AUTO 14012G16KT 4SM BR OVC004 18/17 A2967 RMK AO2 T01750172
KDRM 210615Z AUTO 14010G18KT 3SM BR OVC004 17/17 A2970 RMK AO2 T01710168
KDRM 210555Z AUTO 14013G20KT 2 1/2SM -RA OVC004 17/17 A2972 RMK AO2 P0001 60030 T01700167 10170 20161 401700132
KDRM 210535Z AUTO 14012G21KT 2 1/2SM -RA OVC004 17/17 A2973 RMK AO2 P0001 T01700165
KDRM 210515Z AUTO 14012G23KT 5SM BR OVC004 17/16 A2974 RMK AO2 P0001 T01680163
KDRM 210455Z AUTO 13012G20KT 2 1/2SM +RA OVC004 17/16 A2975 RMK AO2 P0006 T01670162
KDRM 210435Z AUTO 13012G18KT 110V170 2 1/2SM -RA OVC006 17/16 A2977 RMK AO2 T01670162
KDRM 210415Z AUTO 13013G22KT 110V200 4SM -RA BKN008 OVC015 17/16 A2980 RMK AO2 T01670160
KDRM 210355Z AUTO 13014G21KT 5SM +RA BKN008 OVC013 17/16 A2982 RMK AO2 P0004 T01670159
KDRM 210335Z AUTO 12011G18KT 7SM -RA BKN008 OVC015 17/16 A2983 RMK AO2 T01660158
KDRM 210315Z AUTO 12010G20KT 100V160 7SM BKN008 OVC015 17/16 A2986 RMK AO2 T01670160
KDRM 210255Z AUTO 12010G16KT 5SM BR BKN006 OVC012 17/16 A2989 RMK AO2 P0001 60019 T01660160
KDRM 210235Z AUTO 12008G17KT 090V150 5SM -DZ BKN006 OVC011 17/16 A2990 RMK AO2 P0001 T01650160
KDRM 210215Z AUTO 11007KT 5SM RA SCT006 BKN012 OVC018 16/16 A2991 RMK AO2 T01630157
KDRM 210155Z AUTO 13006KT 10SM DZ SCT010 BKN027 OVC040 16/16 A2993 RMK AO2 P0008 T01630157
KDRM 210135Z AUTO 12007G14KT 080V140 7SM -RA SCT006 BKN015 OVC047 16/16 A2993 RMK AO2 P0008 T01630157
KDRM 210115Z AUTO 11005KT 5SM RA OVC006 16/16 A2994 RMK AO2 P0004 T01630158
KDRM 210055Z AUTO 11005KT 7SM RA OVC006 16/16 A2994 RMK AO2 P0009 T01630160
KDRM 210035Z AUTO 11006KT 5SM RA OVC006 16/16 A2994 RMK AO2 P0007 T01620157
KDRM 210015Z AUTO 11005KT 5SM RA OVC006 16/16 A2996 RMK AO2 P0001 T01620156
KDRM 202355Z AUTO 09005KT 10SM RA OVC006 16/16 A2998 RMK AO2 P0001 60013 T01630157 10163 20150
KDRM 202335Z AUTO 10005KT 10SM -RA OVC006 16/16 A2998 RMK AO2 T01630159
KDRM 202315Z AUTO 11005KT 7SM RA OVC006 16/16 A2998 RMK AO2 T01600157
KDRM 202255Z AUTO 09004KT 3SM DZ OVC006 16/16 A2999 RMK AO2 P0001 T01600155
KDRM 202235Z AUTO 08004KT 7SM OVC008 16/16 A2999 RMK AO2 P0001 T01600155
KDRM 202215Z AUTO 09006KT 10SM -RA BKN008 OVC012 16/15 A2999 RMK AO2 T01580152
KDRM 202155Z AUTO 08003KT 10SM RA SCT005 OVC012 16/15 A3001 RMK AO2 T01570152
KDRM 202135Z AUTO 10005KT 10SM BKN005 OVC016 16/15 A3001 RMK AO2 T01560151
KDRM 202115Z AUTO 07005KT 10SM -RA BKN007 BKN010 OVC016 16/15 A3002 RMK AO2 T01570151
KDRM 202055Z AUTO 09006KT 10SM RA BKN005 BKN010 OVC020 16/15 A3002 RMK AO2 P0003 60010 T01560150
KDRM 202035Z AUTO 08005KT 10SM -RA OVC007 16/15 A3003 RMK AO2 P0003 T01560150
KDRM 202015Z AUTO 08005KT 7SM -RA SCT005 BKN011 OVC031 16/15 A3004 RMK AO2 P0002 T01570151
KDRM 201955Z AUTO 10004KT 5SM RA SCT007 BKN019 OVC031 16/15 A3005 RMK AO2 P0006 T01550149
KDRM 201935Z AUTO 07004KT 7SM -RA SCT007 BKN021 OVC033 16/15 A3007 RMK AO2 P0002 T01550147
KDRM 201915Z AUTO 10004KT 10SM -RA SCT007 BKN022 OVC033 16/15 A3007 RMK AO2 P0001 T01550145
KDRM 201855Z AUTO 00000KT 10SM -RA OVC033 15/14 A3007 RMK AO2 P0001 T01530142
KDRM 201835Z AUTO 11005KT 10SM RA OVC035 15/14 A3008 RMK AO2 P0001 T01520140
KDRM 201815Z AUTO 11005KT 10SM -RA OVC033 15/14 A3008 RMK AO2 T01520140
KDRM 201755Z AUTO 11004KT 10SM -RA OVC031 15/14 A3009 RMK AO2 60001 T01500137 10150 20135
KDRM 201735Z AUTO 00000KT 10SM DZ OVC029 15/14 A3010 RMK AO2 T01500136
KDRM 201715Z AUTO 00000KT 10SM -DZ OVC027 15/14 A3010 RMK AO2 T01480136
KDRM 201655Z AUTO 08003KT 10SM -RA OVC027 15/14 A3012 RMK AO2 P0001 T01470135
KDRM 201635Z AUTO 07003KT 10SM RA OVC025 15/14 A3012 RMK AO2 T01470136
KDRM 201615Z AUTO 06003KT 10SM -RA OVC025 15/14 A3012 RMK AO2 T01470137
KDRM 201555Z AUTO 09003KT 10SM OVC025 15/14 A3013 RMK AO2 T01460137
KDRM 201535Z AUTO 11003KT 10SM SCT016 OVC027 15/14 A3014 RMK AO2 T01460137
KDRM 201515Z AUTO 00000KT 10SM SCT015 OVC027 15/14 A3014 RMK AO2 T01450137
KDRM 201455Z AUTO 11003KT 10SM OVC027 15/14 A3014 RMK AO2 T01450136
KDRM 201435Z AUTO 10003KT 10SM -DZ OVC025 14/14 A3013 RMK AO2 T01430135
KDRM 201415Z AUTO 09004KT 10SM -RA OVC025 14/14 A3013 RMK AO2 T01410135
KDRM 201355Z AUTO 11003KT 10SM OVC025 14/13 A3013 RMK AO2 T01400134
KDRM 201335Z AUTO 00000KT 10SM OVC021 14/13 A3013 RMK AO2 T01380132
KDRM 201315Z AUTO 11003KT 10SM BKN021 OVC028 14/13 A3013 RMK AO2 T01390133
KDRM 201255Z AUTO 00000KT 7SM OVC026 14/13 A3013 RMK AO2 T01380132
KDRM 201235Z AUTO 00000KT 10SM OVC024 14/13 A3013 RMK AO2 T01370131
KDRM 201215Z AUTO 00000KT 10SM OVC024 14/13 A3013 RMK AO2 T01350130
KDRM 201155Z AUTO 00000KT 10SM OVC024 14/13 A3013 RMK AO2 60004 70014 T01350128 10140 20132
KDRM 201135Z AUTO 00000KT 10SM OVC024 13/13 A3012 RMK AO2 T01330126
KDRM 201115Z AUTO 00000KT 10SM OVC024 13/13 A3012 RMK AO2 T01340126
KDRM 201055Z AUTO 00000KT 10SM OVC024 14/13 A3012 RMK AO2 T01350126
KDRM 201035Z AUTO 00000KT 10SM SCT016 OVC024 14/13 A3012 RMK AO2 T01350126
KDRM 201015Z AUTO 00000KT 10SM SCT016 OVC024 13/13 A3012 RMK AO2 T01330127
KDRM 200955Z AUTO 12004KT 10SM BKN016 OVC024 13/13 A3012 RMK AO2 T01330127
KDRM 200935Z AUTO 11006KT 10SM BKN014 OVC024 13/13 A3011 RMK AO2 T01320127
KDRM 200915Z AUTO 00000KT 7SM SCT016 OVC026 13/13 A3011 RMK AO2 T01330128
KDRM 200855Z AUTO 00000KT 7SM -DZ OVC016 14/13 A3011 RMK AO2 60004 T01350131
KDRM 200835Z AUTO 10003KT 7SM DZ OVC013 14/13 A3011 RMK AO2 T01370133
KDRM 200815Z AUTO 11004KT 7SM OVC013 14/14 A3011 RMK AO2 T01380135
KDRM 200755Z AUTO 11003KT 7SM SCT003 OVC015 14/14 A3011 RMK AO2 P0001 T01400135
KDRM 200735Z AUTO 13003KT 10SM SCT003 BKN014 OVC032 14/14 A3011 RMK AO2 P0001 T01400135
KDRM 200715Z AUTO 00000KT 7SM DZ SCT014 SCT020 OVC032 14/14 A3011 RMK AO2 T01400135
KDRM 200655Z AUTO 00000KT 10SM -DZ BKN014 BKN022 OVC034 14/14 A3011 RMK AO2 P0003 T01400135
KDRM 200635Z AUTO 00000KT 7SM -RA SCT016 BKN033 OVC045 14/13 A3011 RMK AO2 P0003 T01400133
KDRM 200615Z AUTO 00000KT 5SM RA SCT016 BKN032 OVC043 14/13 A3011 RMK AO2 P0001 T01400134
KDRM 200555Z AUTO 00000KT 7SM -RA SCT016 BKN028 OVC035 14/13 A3011 RMK AO2 P0002 60009 T01400134 10152 20140 401720098
KDRM 200535Z AUTO 00000KT 10SM RA SCT016 BKN030 OVC037 14/13 A3012 RMK AO2 P0002 T01400132
KDRM 200515Z AUTO 00000KT 7SM -RA SCT014 BKN030 OVC100 14/13 A3011 RMK AO2 P0001 T01400131
KDRM 200455Z AUTO 00000KT 7SM -RA SCT032 SCT044 OVC100 14/13 A3010 RMK AO2 P0007 T01410130
KDRM 200435Z AUTO 00000KT 5SM RA SCT029 BKN036 OVC080 14/13 A3010 RMK AO2 P0003 T01400130
KDRM 200415Z AUTO 00000KT 7SM -RA OVC040 14/13 A3011 RMK AO2 P0001 T01420127
KDRM 200355Z AUTO 00000KT 10SM -RA OVC038 15/13 A3011 RMK AO2 T01480125